Kingsville Naval Air Station, TX

5:34 PM CDT on March 26, 2015 (GMT -0500)
Kingsville Naval Air Station | | Change Station
CLOSE
Current Station
Airport
Location: Kingsville NAS,
Elevation: 49 ft
Nearby Weather Stations

Elev 49 ft 27.51 °N, 97.81 °W | Updated 11 minutes ago

Mostly Cloudy
Mostly Cloudy
68 °F
Feels Like 68 °F
N
17
Wind Variable Wind from North
Gusts 29 mph

Today
High -- | Low -- °F
--% Chance of Precip.
Yesterday
High -- | Low -- °F
Precip. -- in
7:28 AM 7:45 PM
Waxing Crescent, 46% visible
Pressure 30.01 in
Visibility 10.0 miles
Clouds Scattered Clouds 5000 ft
Mostly Cloudy 7000 ft
Mostly Cloudy 13000 ft
Mostly Cloudy 25000 ft
Dew Point 53 °F
Humidity 59%
Rainfall 0.00 in
Snow Depth Not available.
UV 2 out of 12
Pollen 9.30 out of 12
Air Quality Not available.
Flu Activity Not available.
SPECI KNQI 262223Z 36015G25KT 10SM TS SCT050CB BKN070 BKN130 BKN250 20/12 A3001 RMK AO2 PK WND 34028/2208 TSB22 OCNL LTGCG VC N-NE TS N-NE MOV E VCSH N-NE T1 SET T02000117 $

More Conditions Fewer Conditions

Pressure 30.01 in
Visibility 10.0 miles
Clouds Scattered Clouds 5000 ft
Mostly Cloudy 7000 ft
Mostly Cloudy 13000 ft
Mostly Cloudy 25000 ft
Dew Point 53 °F
Humidity 59%
Rainfall 0.00 in
Snow Depth Not available.
UV 2 out of 12
Pollen 9.30 out of 12
Air Quality Not available.
Flu Activity Not available.
SPECI KNQI 262223Z 36015G25KT 10SM TS SCT050CB BKN070 BKN130 BKN250 20/12 A3001 RMK AO2 PK WND 34028/2208 TSB22 OCNL LTGCG VC N-NE TS N-NE MOV E VCSH N-NE T1 SET T02000117 $

More Conditions Fewer Conditions

Nowcast | as of 4:21 PM CDT on March 26, 2015

Scattered showers and thunderstorms will continue to move east around 35 mph over the southern brush country into the coastal plains of south Texas through 6 PM. The thunderstorms will mainly impact areas east of a line from near Bruni northeast to Lake Corpus Christi to west of Refugio. The storms are expected to slowly weaken late this afternoon as daytime heating gradually diminishes. Rainfall amounts will mainly average near a tenth of an inch. However...locations experiencing thunderstorms will see amounts between 1/4 and 1/2 inch along with occasional cloud to ground lightning. Isolated pea-sized hail could also occur.

×

10-Day Weather Forecast

Almanac

Astronomy

Mar. 26, 2015 Rise Set
Actual Time
Civil Twilight
Nautical Twilight
Astronomical Twilight
Moon
Length of Visible Light
Length of Day
Tomorrow will be .
, % of the Moon is Illuminated

Today's Extremes

State Highs State Lows

Community

WunderPhotos

Upload Photos

1,808,628 photos uploaded!

WunderBlogs® & News

Nearby

Air Quality

  Air Quality AQ Index Pollutant
Not available.

Snow Depth

Station Depth Elevation

Earthquake Activity

City Distance Mag. Time & Date
Minimum magnitude displayed is 2.5.

Coastal Water Temperatures

Place Temperature

Stations

Nearby Weather Stations

Station Location Temp. Windchill Dew Point Humidity Wind Precip. Elev Updated Type